createdAt,value
2019-05-17T04:00:47.978Z,52.23
2019-05-17T04:02:47.948Z,51.90
2019-05-17T04:04:47.928Z,53.03
2019-05-17T04:06:47.910Z,52.92
2019-05-17T04:08:47.892Z,52.72
2019-05-17T04:10:47.903Z,52.69
2019-05-17T04:12:47.851Z,52.15
2019-05-17T04:14:47.879Z,51.64
2019-05-17T04:16:47.825Z,51.95
2019-05-17T04:18:47.794Z,52.47
2019-05-17T04:20:47.797Z,52.13
2019-05-17T04:22:47.742Z,52.13
2019-05-17T04:24:47.779Z,52.03
2019-05-17T04:26:47.716Z,51.50
2019-05-17T04:28:47.677Z,51.29
2019-05-17T04:30:47.694Z,51.18
2019-05-17T04:32:47.642Z,51.57
2019-05-17T04:34:47.618Z,51.26
2019-05-17T04:36:47.579Z,51.16
2019-05-17T04:38:47.599Z,50.85
2019-05-17T04:40:47.568Z,50.83
2019-05-17T04:42:47.517Z,50.63
2019-05-17T04:44:47.525Z,50.73
2019-05-17T04:46:47.579Z,50.73
2019-05-17T04:48:47.473Z,51.04
2019-05-17T04:50:47.478Z,50.83
2019-05-17T04:52:47.418Z,51.01
2019-05-17T04:54:47.402Z,50.81
2019-05-17T04:56:47.363Z,50.91
2019-05-17T04:58:50.234Z,50.91
2019-05-17T05:00:48.335Z,50.99
2019-05-17T05:02:47.294Z,50.99
2019-05-17T05:04:47.281Z,50.48
2019-05-17T05:06:47.366Z,50.25
2019-05-17T05:08:47.282Z,50.35
2019-05-17T05:10:47.231Z,50.66
2019-05-17T05:12:47.185Z,50.56
2019-05-17T05:14:47.265Z,49.92
2019-05-17T05:16:47.170Z,50.04
2019-05-17T05:18:47.143Z,49.30
2019-05-17T05:20:47.116Z,49.62
2019-05-17T05:22:47.196Z,49.71
2019-05-17T05:24:47.081Z,49.71
2019-05-17T05:26:47.070Z,49.51
2019-05-17T05:28:49.574Z,49.49
2019-05-17T05:30:46.993Z,49.71
2019-05-17T05:32:46.980Z,49.62
2019-05-17T05:34:46.944Z,49.49
2019-05-17T05:36:46.933Z,49.62
2019-05-17T05:38:46.902Z,49.51
2019-05-17T05:40:46.878Z,50.12
2019-05-17T05:42:46.879Z,49.82
2019-05-17T05:44:46.828Z,49.30
2019-05-17T05:46:46.810Z,49.30
2019-05-17T05:48:46.799Z,49.71
2019-05-17T05:50:46.776Z,49.69
2019-05-17T05:52:46.791Z,49.59
2019-05-17T05:54:46.768Z,49.38
2019-05-17T05:56:47.949Z,48.98
2019-05-17T05:58:46.681Z,49.29
2019-05-17T06:00:46.658Z,49.59
2019-05-17T06:02:46.649Z,50.10
2019-05-17T06:04:46.630Z,49.26
2019-05-17T06:06:46.690Z,49.16
2019-05-17T06:08:46.626Z,49.04
2019-05-17T06:10:46.568Z,49.65
2019-05-17T06:12:46.529Z,49.65
2019-05-17T06:14:46.602Z,49.21
2019-05-17T06:16:47.743Z,49.01
2019-05-17T06:18:46.566Z,48.91
2019-05-17T06:20:46.443Z,48.71
2019-05-17T06:22:46.513Z,48.81
2019-05-17T06:24:46.424Z,48.79
2019-05-17T06:26:46.401Z,47.87
2019-05-17T06:28:46.354Z,48.35
2019-05-17T06:30:46.365Z,47.95
2019-05-17T06:32:46.322Z,48.54
2019-05-17T06:34:46.315Z,48.03
2019-05-17T06:36:46.282Z,48.33
2019-05-17T06:38:46.256Z,48.31
2019-05-17T06:40:46.236Z,48.11
2019-05-17T06:42:46.241Z,48.19
2019-05-17T06:44:46.184Z,47.60
2019-05-17T06:46:46.166Z,48.28
2019-05-17T06:48:46.153Z,47.67
2019-05-17T06:50:46.123Z,47.67
2019-05-17T06:52:47.777Z,47.58
2019-05-17T06:54:46.151Z,47.35
2019-05-17T06:56:46.054Z,47.47
2019-05-17T06:58:46.031Z,48.19
2019-05-17T07:00:46.020Z,48.08
2019-05-17T07:02:46.084Z,48.39
2019-05-17T07:04:46.881Z,48.39
2019-05-17T07:06:45.963Z,47.98
2019-05-17T07:08:45.929Z,48.31
2019-05-17T07:10:45.917Z,47.70
2019-05-17T07:12:57.763Z,48.59
2019-05-17T07:14:46.869Z,47.70
2019-05-17T07:16:45.838Z,47.98
2019-05-17T07:18:49.278Z,47.98
2019-05-17T07:20:50.236Z,48.08
2019-05-17T07:22:45.773Z,47.98
2019-05-17T07:24:45.764Z,47.88
2019-05-17T07:26:46.529Z,48.39
2019-05-17T07:28:45.713Z,48.67
2019-05-17T07:30:45.691Z,48.57
2019-05-17T07:32:49.628Z,48.47
2019-05-17T07:34:45.652Z,47.75
2019-05-17T07:36:45.622Z,48.36
2019-05-17T07:38:45.680Z,48.27
2019-05-17T07:40:45.618Z,48.04
2019-05-17T07:42:45.549Z,48.24
2019-05-17T07:44:45.661Z,47.94
2019-05-17T07:47:00.077Z,48.34
2019-05-17T07:48:49.624Z,47.94
2019-05-17T07:52:45.455Z,48.02
2019-05-17T07:54:45.463Z,48.32
2019-05-17T07:56:45.425Z,47.30
2019-05-17T07:58:45.393Z,47.41
2019-05-17T08:00:45.359Z,47.49
2019-05-17T08:02:45.373Z,47.06
2019-05-17T08:04:45.326Z,46.73
2019-05-17T08:06:46.300Z,47.31
2019-05-17T08:08:46.572Z,45.78
2019-05-17T08:10:47.110Z,45.78
2019-05-17T08:12:49.391Z,45.67
2019-05-17T08:14:47.195Z,45.65
2019-05-17T08:16:45.187Z,46.04
2019-05-17T08:18:45.855Z,46.14
2019-05-17T08:20:45.148Z,45.94
2019-05-17T08:22:45.126Z,45.10
2019-05-17T08:24:45.114Z,45.31
2019-05-17T08:26:45.321Z,45.29
2019-05-17T08:28:46.897Z,45.59
2019-05-17T08:30:50.182Z,45.41
2019-05-17T08:32:46.039Z,45.39
2019-05-17T08:34:45.232Z,46.01
2019-05-17T08:36:46.165Z,45.91
2019-05-17T08:38:44.955Z,46.22
2019-05-17T08:40:44.949Z,46.95
2019-05-17T08:42:44.910Z,46.77
2019-05-17T08:44:44.894Z,46.46
2019-05-17T08:46:45.242Z,46.84
2019-05-17T08:48:45.884Z,46.56
2019-05-17T08:50:44.990Z,46.34
2019-05-17T08:52:44.827Z,47.05
2019-05-17T08:54:44.899Z,46.62
2019-05-17T08:56:44.763Z,45.89
2019-05-17T08:58:49.767Z,46.07
2019-05-17T09:00:44.713Z,45.34
2019-05-17T09:02:44.696Z,45.22
2019-05-17T09:04:44.666Z,44.17
2019-05-17T09:06:44.642Z,44.45
2019-05-17T09:08:44.634Z,43.73
2019-05-17T09:10:44.594Z,44.33
2019-05-17T09:12:45.659Z,44.13
2019-05-17T09:14:44.562Z,44.55
2019-05-17T09:16:46.165Z,45.16
2019-05-17T09:18:45.185Z,45.18
2019-05-17T09:20:45.971Z,44.95
2019-05-17T09:22:45.313Z,45.38
2019-05-17T09:24:44.484Z,45.16
2019-05-17T09:26:44.442Z,45.36
2019-05-17T09:28:44.417Z,44.85
2019-05-17T09:30:44.402Z,45.03
2019-05-17T09:32:44.406Z,45.03
2019-05-17T09:34:45.645Z,45.44
2019-05-17T09:36:44.581Z,45.16
2019-05-17T09:38:53.365Z,45.16
2019-05-17T09:40:44.295Z,45.58
2019-05-17T09:42:44.866Z,45.98
2019-05-17T09:44:44.304Z,45.38
2019-05-17T09:46:44.222Z,45.89
2019-05-17T09:48:46.973Z,45.61
2019-05-17T09:50:44.230Z,47.22
2019-05-17T09:52:44.157Z,46.61
2019-05-17T09:54:45.630Z,46.64
2019-05-17T09:56:44.223Z,46.96
2019-05-17T09:58:44.090Z,47.39
2019-05-17T10:00:44.064Z,47.49
2019-05-17T10:02:44.037Z,47.59
2019-05-17T10:04:46.978Z,47.19
2019-05-17T10:06:44.321Z,47.51
2019-05-17T10:08:43.996Z,47.61
2019-05-17T10:10:44.295Z,47.71
2019-05-17T10:12:43.923Z,47.83
2019-05-17T10:14:50.957Z,47.83
2019-05-17T10:16:43.887Z,48.16
2019-05-17T10:18:43.863Z,48.14
2019-05-17T10:20:43.853Z,47.41
2019-05-17T10:22:43.836Z,47.28
2019-05-17T10:24:43.795Z,46.76
2019-05-17T10:26:43.787Z,46.33
2019-05-17T10:28:43.758Z,46.41
2019-05-17T10:30:43.799Z,46.41
2019-05-17T10:32:43.779Z,46.59
2019-05-17T10:34:43.685Z,46.59
2019-05-17T10:36:43.754Z,46.19
2019-05-17T10:38:43.778Z,46.61
2019-05-17T10:40:43.624Z,46.61
2019-05-17T10:42:43.771Z,47.02
2019-05-17T10:44:47.583Z,46.64
2019-05-17T10:46:43.738Z,46.84
2019-05-17T10:48:43.548Z,47.06
2019-05-17T10:50:43.568Z,47.16
2019-05-17T10:52:43.499Z,47.69
2019-05-17T10:54:43.483Z,47.19
2019-05-17T10:56:43.624Z,48.14
2019-05-17T10:58:43.421Z,47.43
2019-05-17T11:00:43.526Z,48.26
2019-05-17T11:02:43.529Z,48.49
2019-05-17T11:04:43.498Z,49.11
2019-05-17T11:06:43.480Z,48.91
2019-05-17T11:08:43.456Z,48.63
2019-05-17T11:10:43.414Z,48.94
2019-05-17T11:12:43.292Z,49.24
2019-05-17T11:14:52.499Z,49.24
2019-05-17T11:16:44.244Z,49.14
2019-05-17T11:18:43.215Z,48.39
2019-05-17T11:20:43.379Z,47.94
2019-05-17T11:22:43.184Z,47.19
2019-05-17T11:24:43.190Z,46.36
2019-05-17T11:26:43.157Z,46.11
2019-05-17T11:28:43.226Z,45.58
2019-05-17T11:30:43.223Z,45.18
2019-05-17T11:32:43.178Z,45.58
2019-05-17T11:34:43.138Z,46.39
2019-05-17T11:36:43.021Z,46.89
2019-05-17T11:38:43.131Z,46.39
2019-05-17T11:40:43.113Z,46.59
2019-05-17T11:42:42.964Z,46.79
2019-05-17T11:44:43.064Z,46.59
2019-05-17T11:46:43.016Z,46.47
2019-05-17T11:48:42.881Z,46.33
2019-05-17T11:50:43.358Z,45.79
2019-05-17T11:52:42.898Z,45.90
2019-05-17T11:54:42.911Z,46.00
2019-05-17T11:56:42.853Z,45.47
2019-05-17T11:58:42.817Z,45.98
2019-05-17T12:00:42.793Z,46.48
2019-05-17T12:02:43.882Z,46.40
2019-05-17T12:04:42.706Z,46.50
2019-05-17T12:06:42.719Z,46.68
2019-05-17T12:08:42.691Z,46.26
2019-05-17T12:10:42.676Z,46.26
2019-05-17T12:12:42.651Z,46.46
2019-05-17T12:14:42.603Z,46.18
2019-05-17T12:16:42.577Z,46.88
2019-05-17T12:18:42.611Z,46.68
2019-05-17T12:20:42.559Z,46.26
2019-05-17T12:22:42.550Z,47.04
2019-05-17T12:24:42.533Z,44.96
2019-05-17T12:26:42.486Z,44.12
2019-05-17T12:28:42.533Z,43.46
2019-05-17T12:30:42.431Z,43.51
2019-05-17T12:32:42.533Z,43.21
2019-05-17T12:34:42.485Z,43.63
2019-05-17T12:36:42.465Z,44.66
2019-05-17T12:38:42.401Z,44.86
2019-05-17T12:40:42.349Z,45.20
2019-05-17T12:42:42.469Z,45.83
2019-05-17T12:44:42.355Z,45.92
2019-05-17T12:46:42.410Z,46.75
2019-05-17T12:48:42.252Z,46.55
2019-05-17T12:50:42.298Z,46.35
2019-05-17T12:52:42.264Z,46.47
2019-05-17T12:54:42.237Z,45.95
2019-05-17T12:56:42.217Z,46.25
2019-05-17T12:58:42.149Z,45.62
2019-05-17T13:00:42.207Z,45.40
2019-05-17T13:02:42.082Z,45.38
2019-05-17T13:04:42.168Z,44.66
2019-05-17T13:06:42.120Z,45.06
2019-05-17T13:08:42.173Z,44.76
2019-05-17T13:10:42.112Z,45.38
2019-05-17T13:12:42.026Z,44.88
2019-05-17T13:14:41.973Z,45.30
2019-05-17T13:16:42.080Z,46.18
2019-05-17T13:18:41.979Z,46.18
2019-05-17T13:20:42.001Z,45.28
2019-05-17T13:22:41.903Z,44.86
2019-05-17T13:24:41.896Z,45.16
2019-05-17T13:26:41.853Z,45.12
2019-05-17T13:28:41.824Z,44.71
2019-05-17T13:30:41.787Z,45.09
2019-05-17T13:32:41.781Z,44.37
2019-05-17T13:34:41.738Z,45.17
2019-05-17T13:36:41.733Z,44.35
2019-05-17T13:38:41.754Z,43.95
2019-05-17T13:40:41.710Z,43.73
2019-05-17T13:42:41.672Z,43.81
2019-05-17T13:44:41.658Z,44.71
2019-05-17T13:46:41.603Z,44.01
2019-05-17T13:48:41.585Z,44.61
2019-05-17T13:50:41.585Z,43.97
2019-05-17T13:52:41.540Z,43.77
2019-05-17T13:54:41.537Z,43.77
2019-05-17T13:56:41.525Z,43.65
2019-05-17T13:58:41.503Z,43.82
2019-05-17T14:00:41.458Z,43.21
2019-05-17T14:02:41.452Z,43.60
2019-05-17T14:04:41.407Z,43.98
2019-05-17T14:06:41.380Z,43.90
2019-05-17T14:08:41.370Z,43.71
2019-05-17T14:10:41.354Z,43.60
2019-05-17T14:12:41.444Z,44.90
2019-05-17T14:14:42.081Z,44.53
2019-05-17T14:16:41.426Z,44.62
2019-05-17T14:18:41.367Z,44.72
2019-05-17T14:20:41.294Z,44.60
2019-05-17T14:22:41.218Z,44.80
2019-05-17T14:24:41.185Z,44.60
2019-05-17T14:26:41.308Z,44.50
2019-05-17T14:28:41.266Z,44.50
2019-05-17T14:30:41.217Z,44.40
2019-05-17T14:32:41.285Z,45.20
2019-05-17T14:34:41.133Z,45.00
2019-05-17T14:36:41.129Z,45.22
2019-05-17T14:38:41.105Z,45.02
2019-05-17T14:41:04.865Z,46.42
2019-05-17T14:42:41.992Z,46.01
2019-05-17T14:44:40.981Z,45.72
2019-05-17T14:46:40.960Z,45.92
2019-05-17T14:48:40.927Z,45.02
2019-05-17T14:50:40.994Z,45.00
2019-05-17T14:52:40.907Z,45.00
2019-05-17T14:54:40.947Z,45.37
2019-05-17T14:56:40.933Z,45.08
2019-05-17T14:58:40.922Z,44.96
2019-05-17T15:00:40.854Z,44.98
2019-05-17T15:02:40.878Z,44.98
2019-05-17T15:04:40.784Z,44.98
2019-05-17T15:06:40.731Z,46.09
2019-05-17T15:08:40.795Z,46.00
2019-05-17T15:10:40.748Z,46.00
2019-05-17T15:12:40.985Z,46.22
2019-05-17T15:14:40.678Z,46.44
2019-05-17T15:16:40.637Z,46.86
2019-05-17T15:18:40.750Z,47.45
2019-05-17T15:20:40.583Z,47.38
2019-05-17T15:22:40.569Z,47.38
2019-05-17T15:24:40.636Z,47.40
2019-05-17T15:26:40.673Z,47.30
2019-05-17T15:28:40.623Z,47.10
2019-05-17T15:30:40.569Z,47.42
2019-05-17T15:32:40.498Z,47.13
2019-05-17T15:34:40.510Z,47.92
2019-05-17T15:36:40.427Z,47.65
2019-05-17T15:38:40.423Z,47.65
2019-05-17T15:40:40.376Z,47.65
2019-05-17T15:42:44.059Z,47.85
2019-05-17T15:44:40.374Z,47.87
2019-05-17T15:46:40.372Z,48.07
2019-05-17T15:48:40.312Z,48.69
2019-05-17T15:50:40.283Z,48.19
2019-05-17T15:52:40.270Z,48.22
2019-05-17T15:54:40.217Z,48.22
2019-05-17T15:56:40.205Z,47.92
2019-05-17T15:58:40.189Z,48.34
2019-05-17T16:00:40.143Z,48.34
2019-05-17T16:02:40.122Z,48.44
2019-05-17T16:04:40.115Z,48.34
2019-05-17T16:06:40.071Z,48.44
2019-05-17T16:08:40.077Z,48.84
2019-05-17T16:10:40.048Z,48.54
2019-05-17T16:12:40.005Z,48.36
2019-05-17T16:14:40.007Z,48.36
2019-05-17T16:16:49.555Z,48.96
2019-05-17T16:18:42.048Z,48.36
2019-05-17T16:20:39.954Z,48.79
2019-05-17T16:22:39.967Z,48.99
2019-05-17T16:24:40.016Z,49.41
2019-05-17T16:26:40.744Z,49.11
2019-05-17T16:28:39.840Z,49.31
2019-05-17T16:30:39.934Z,49.74
2019-05-17T16:32:40.096Z,49.91
2019-05-17T16:34:39.845Z,49.93
2019-05-17T16:36:39.745Z,49.76
2019-05-17T16:38:39.826Z,49.46
2019-05-17T16:40:40.277Z,50.16
2019-05-17T16:42:41.177Z,50.06
2019-05-17T16:44:39.981Z,49.91
2019-05-17T16:46:40.425Z,50.41
2019-05-17T16:48:39.652Z,50.61
2019-05-17T16:50:39.603Z,50.43
2019-05-17T16:52:39.566Z,50.41
2019-05-17T16:54:39.647Z,50.51
2019-05-17T16:56:39.978Z,50.01
2019-05-17T16:58:39.644Z,49.91
2019-05-17T17:00:39.493Z,50.03
2019-05-17T17:02:39.454Z,50.23
2019-05-17T17:04:39.431Z,50.13
2019-05-17T17:06:40.976Z,50.35
2019-05-17T17:08:39.405Z,50.46
2019-05-17T17:10:39.632Z,50.43
2019-05-17T17:12:39.366Z,50.96
2019-05-17T17:14:39.325Z,51.36
2019-05-17T17:16:39.311Z,50.98
2019-05-17T17:18:39.318Z,50.98
2019-05-17T17:20:39.879Z,51.49
2019-05-17T17:22:40.256Z,50.98
2019-05-17T17:24:39.217Z,50.91
2019-05-17T17:26:39.433Z,51.61
2019-05-17T17:28:39.190Z,51.91
2019-05-17T17:30:39.292Z,51.93
2019-05-17T17:32:39.126Z,51.97
2019-05-17T17:34:39.137Z,52.26
2019-05-17T17:36:39.091Z,52.17
2019-05-17T17:38:39.088Z,52.19
2019-05-17T17:40:39.055Z,52.29
2019-05-17T17:42:39.021Z,52.01
2019-05-17T17:44:39.001Z,52.42
2019-05-17T17:46:38.991Z,52.62
2019-05-17T17:48:38.972Z,52.74
2019-05-17T17:50:38.941Z,52.97
2019-05-17T17:52:38.911Z,52.76
2019-05-17T17:54:39.058Z,53.27
2019-05-17T17:56:38.865Z,52.59
2019-05-17T17:58:38.877Z,52.59
2019-05-17T18:00:38.842Z,52.92
2019-05-17T18:02:38.820Z,53.52
2019-05-17T18:04:38.806Z,53.22
2019-05-17T18:06:38.758Z,54.16
2019-05-17T18:08:38.788Z,54.16
2019-05-17T18:10:38.742Z,54.16
2019-05-17T18:12:38.699Z,53.65
2019-05-17T18:14:38.694Z,53.85
2019-05-17T18:16:38.658Z,53.88
2019-05-17T18:18:38.629Z,53.88
2019-05-17T18:20:38.777Z,53.38
2019-05-17T18:22:38.591Z,53.90
2019-05-17T18:24:38.585Z,53.88
2019-05-17T18:26:38.584Z,53.60
2019-05-17T18:28:38.537Z,53.50
2019-05-17T18:30:38.546Z,53.50
2019-05-17T18:32:38.506Z,53.70
2019-05-17T18:34:38.468Z,53.50
2019-05-17T18:36:38.633Z,53.50
2019-05-17T18:38:38.455Z,53.52
2019-05-17T18:40:38.407Z,53.52
2019-05-17T18:42:38.394Z,53.63
2019-05-17T18:44:38.373Z,54.13
2019-05-17T18:46:38.337Z,53.93
2019-05-17T18:48:38.325Z,54.44
2019-05-17T18:50:38.300Z,54.33
2019-05-17T18:52:38.277Z,54.46
2019-05-17T18:54:38.257Z,54.16
2019-05-17T18:56:38.238Z,54.36
2019-05-17T18:58:39.416Z,54.36
2019-05-17T19:00:38.208Z,53.96
2019-05-17T19:02:38.163Z,54.38
2019-05-17T19:04:38.143Z,53.96
2019-05-17T19:06:38.131Z,53.98
2019-05-17T19:08:38.097Z,53.98
2019-05-17T19:10:38.154Z,53.78
2019-05-17T19:12:38.075Z,54.28
2019-05-17T19:14:43.031Z,53.98
2019-05-17T19:16:39.086Z,54.08
2019-05-17T19:18:37.989Z,54.18
2019-05-17T19:20:37.963Z,54.18
2019-05-17T19:22:38.040Z,54.21
2019-05-17T19:24:37.926Z,54.21
2019-05-17T19:26:37.948Z,54.21
2019-05-17T19:28:37.901Z,54.21
2019-05-17T19:30:37.903Z,54.21
2019-05-17T19:32:37.831Z,53.91
2019-05-17T19:34:37.825Z,53.91
2019-05-17T19:36:37.877Z,53.70
2019-05-17T19:38:37.781Z,54.11
2019-05-17T19:40:37.760Z,54.13
2019-05-17T19:42:37.725Z,54.13
2019-05-17T19:44:37.729Z,54.13
2019-05-17T19:46:37.681Z,54.64
2019-05-17T19:48:37.663Z,54.53
2019-05-17T19:50:37.711Z,53.83
2019-05-17T19:52:37.625Z,54.13
2019-05-17T19:54:39.596Z,54.13
2019-05-17T19:56:41.644Z,53.93
2019-05-17T19:58:37.548Z,53.83
2019-05-17T20:00:37.528Z,54.05
2019-05-17T20:02:37.526Z,53.93
2019-05-17T20:04:37.743Z,53.85
2019-05-17T20:06:37.780Z,53.75
2019-05-17T20:08:37.514Z,54.16
2019-05-17T20:10:37.459Z,53.75
2019-05-17T20:12:37.426Z,54.05
2019-05-17T20:14:37.396Z,53.96
2019-05-17T20:16:37.370Z,54.05
2019-05-17T20:18:37.469Z,54.05
2019-05-17T20:20:37.366Z,54.26
2019-05-17T20:22:37.291Z,53.96
2019-05-17T20:24:37.346Z,54.26
2019-05-17T20:26:37.435Z,54.05
2019-05-17T20:28:37.238Z,54.26
2019-05-17T20:30:37.276Z,54.26
2019-05-17T20:32:37.202Z,54.28
2019-05-17T20:34:37.179Z,54.18
2019-05-17T20:36:37.132Z,53.98
2019-05-17T20:38:37.131Z,53.78
2019-05-17T20:40:37.110Z,54.39
2019-05-17T20:42:37.076Z,54.39
2019-05-17T20:44:37.054Z,54.39
2019-05-17T20:46:37.053Z,54.28
2019-05-17T20:48:37.013Z,54.08
2019-05-17T20:50:37.004Z,53.98
2019-05-17T20:52:36.965Z,53.88
2019-05-17T20:54:36.957Z,53.88
2019-05-17T20:56:36.935Z,53.88
2019-05-17T20:58:36.899Z,53.98
2019-05-17T21:00:36.870Z,53.98
2019-05-17T21:02:36.889Z,54.00
2019-05-17T21:04:36.829Z,53.80
2019-05-17T21:06:36.809Z,53.88
2019-05-17T21:08:45.567Z,53.88
2019-05-17T21:10:37.786Z,54.00
2019-05-17T21:12:36.748Z,54.21
2019-05-17T21:14:36.736Z,54.21
2019-05-17T21:16:36.695Z,54.00
2019-05-17T21:18:36.696Z,54.00
2019-05-17T21:20:36.671Z,54.11
2019-05-17T21:22:36.643Z,54.00
2019-05-17T21:24:36.620Z,53.91
2019-05-17T21:26:36.600Z,53.80
2019-05-17T21:28:36.571Z,54.11
2019-05-17T21:30:36.554Z,54.11
2019-05-17T21:32:36.536Z,54.64
2019-05-17T21:34:36.514Z,54.61
2019-05-17T21:36:36.509Z,54.72
2019-05-17T21:38:36.460Z,54.72
2019-05-17T21:40:36.448Z,55.15
2019-05-17T21:42:36.435Z,54.64
2019-05-17T21:44:36.403Z,54.54
2019-05-17T21:46:36.372Z,54.44
2019-05-17T21:48:36.381Z,54.57
2019-05-17T21:50:36.342Z,54.66
2019-05-17T21:52:36.355Z,55.18
2019-05-17T21:54:36.284Z,54.87
2019-05-17T21:56:36.300Z,55.07
2019-05-17T21:58:36.262Z,54.57
2019-05-17T22:00:36.230Z,54.79
2019-05-17T22:02:38.874Z,55.40
2019-05-17T22:04:37.600Z,55.00
2019-05-17T22:06:37.627Z,54.79
2019-05-17T22:08:39.180Z,54.69
2019-05-17T22:10:36.108Z,54.79
2019-05-17T22:12:36.110Z,55.02
2019-05-17T22:14:36.091Z,55.12
2019-05-17T22:16:36.056Z,55.73
2019-05-17T22:18:36.021Z,55.22
2019-05-17T22:20:36.043Z,55.53
2019-05-17T22:22:35.989Z,55.53
2019-05-17T22:24:35.977Z,55.35
2019-05-17T22:26:35.955Z,55.66
2019-05-17T22:28:35.948Z,55.68
2019-05-17T22:30:35.914Z,55.38
2019-05-17T22:32:35.904Z,55.28
2019-05-17T22:34:35.853Z,55.38
2019-05-17T22:36:35.842Z,55.48
2019-05-17T22:38:35.839Z,55.61
2019-05-17T22:40:35.807Z,55.71
2019-05-17T22:42:39.221Z,55.51
2019-05-17T22:44:35.764Z,55.71
2019-05-17T22:46:36.626Z,55.71
2019-05-17T22:48:35.722Z,55.63
2019-05-17T22:50:35.680Z,55.74
2019-05-17T22:52:35.677Z,55.94
2019-05-17T22:54:35.665Z,55.43
2019-05-17T22:56:35.614Z,55.43
2019-05-17T22:58:35.595Z,55.66
2019-05-17T23:00:35.586Z,55.43
2019-05-17T23:02:35.588Z,55.66
2019-05-17T23:04:35.545Z,55.66
2019-05-17T23:06:35.525Z,55.46
2019-05-17T23:08:35.482Z,55.56
2019-05-17T23:10:35.484Z,55.66
2019-05-17T23:12:35.443Z,55.74
2019-05-17T23:14:35.419Z,55.66
2019-05-17T23:16:50.223Z,55.56
2019-05-17T23:18:36.383Z,55.56
2019-05-17T23:20:35.385Z,55.56
2019-05-17T23:22:35.330Z,55.66
2019-05-17T23:24:35.315Z,55.76
2019-05-17T23:26:35.305Z,55.79
2019-05-17T23:28:35.277Z,55.58
